Time,TemperatureF,DewpointF,PressureIn,WindDirection,WindDirectionDegrees,WindSpeedMPH,WindSpeedGustMPH,Humidity,HourlyPrecipIn,Conditions,Clouds,dailyrainin,SoftwareType,DateUTC
2013-09-13 00:01:00,70.1,68.9,29.83,WNW,284,0.0,0.0,96,0.00,,,0.00,Wunderground v.1.15,2013-09-13 04:01:00,
2013-09-13 00:11:00,70.6,69.1,29.83,WNW,284,0.0,0.0,95,0.00,,,0.00,Wunderground v.1.15,2013-09-13 04:11:00,
2013-09-13 00:21:00,70.1,68.6,29.83,WNW,284,0.0,0.0,95,0.00,,,0.00,Wunderground v.1.15,2013-09-13 04:21:00,
2013-09-13 00:31:00,70.7,69.5,29.82,WNW,284,0.0,1.0,96,0.00,,,0.00,Wunderground v.1.15,2013-09-13 04:31:00,
2013-09-13 00:41:00,71.2,69.7,29.83,West,259,1.0,1.0,95,0.00,,,0.00,Wunderground v.1.15,2013-09-13 04:41:00,
2013-09-13 00:51:00,71.7,70.2,29.82,West,273,1.0,2.0,95,0.00,,,0.00,Wunderground v.1.15,2013-09-13 04:51:00,
2013-09-13 01:01:00,72.1,70.3,29.82,West,267,3.0,4.0,94,0.00,,,0.00,Wunderground v.1.15,2013-09-13 05:01:00,
2013-09-13 01:11:00,72.2,70.4,29.81,WSW,250,2.0,2.0,94,0.00,,,0.00,Wunderground v.1.15,2013-09-13 05:11:00,
2013-09-13 01:21:00,72.2,70.4,29.81,West,277,2.0,3.0,94,0.00,,,0.00,Wunderground v.1.15,2013-09-13 05:21:00,
2013-09-13 01:31:00,72.2,70.4,29.81,West,279,3.0,3.0,94,0.00,,,0.00,Wunderground v.1.15,2013-09-13 05:31:00,
2013-09-13 01:41:00,72.2,70.4,29.81,West,267,4.0,4.0,94,0.00,,,0.00,Wunderground v.1.15,2013-09-13 05:41:00,
2013-09-13 01:51:00,72.2,70.4,29.80,West,272,3.0,3.0,94,0.00,,,0.00,Wunderground v.1.15,2013-09-13 05:51:00,
2013-09-13 02:01:00,72.0,70.2,29.80,WSW,255,3.0,3.0,94,0.00,,,0.00,Wunderground v.1.15,2013-09-13 06:01:00,
2013-09-13 02:11:00,71.7,69.9,29.79,West,268,3.0,3.0,94,0.00,,,0.00,Wunderground v.1.15,2013-09-13 06:11:00,
2013-09-13 02:21:00,71.7,69.9,29.79,West,267,2.0,2.0,94,0.00,,,0.00,Wunderground v.1.15,2013-09-13 06:21:00,
2013-09-13 02:31:00,71.5,69.7,29.79,West,280,1.0,1.0,94,0.00,,,0.00,Wunderground v.1.15,2013-09-13 06:31:00,
2013-09-13 02:41:00,71.3,69.8,29.78,WSW,254,1.0,1.0,95,0.00,,,0.00,Wunderground v.1.15,2013-09-13 06:41:00,
2013-09-13 02:51:00,71.2,69.7,29.78,WSW,253,1.0,1.0,95,0.00,,,0.00,Wunderground v.1.15,2013-09-13 06:51:00,
2013-09-13 03:01:00,71.0,69.2,29.78,West,275,1.0,2.0,94,0.00,,,0.00,Wunderground v.1.15,2013-09-13 07:01:00,
2013-09-13 03:11:00,71.0,68.9,29.77,West,262,2.0,2.0,93,0.00,,,0.00,Wunderground v.1.15,2013-09-13 07:11:00,
2013-09-13 03:21:00,71.2,68.8,29.77,WNW,298,2.0,2.0,92,0.00,,,0.00,Wunderground v.1.15,2013-09-13 07:21:00,
2013-09-13 03:31:00,71.6,68.5,29.76,West,271,2.0,2.0,90,0.00,,,0.00,Wunderground v.1.15,2013-09-13 07:31:00,
2013-09-13 03:41:00,71.5,68.4,29.76,WSW,256,2.0,2.0,90,0.00,,,0.00,Wunderground v.1.15,2013-09-13 07:41:00,
2013-09-13 03:51:00,71.6,67.9,29.76,West,277,2.0,2.0,88,0.00,,,0.00,Wunderground v.1.15,2013-09-13 07:51:00,
2013-09-13 04:01:00,71.5,67.8,29.76,West,277,0.0,0.0,88,0.00,,,0.00,Wunderground v.1.15,2013-09-13 08:01:00,
2013-09-13 04:11:00,70.9,67.5,29.76,WNW,300,0.0,0.0,89,0.00,,,0.00,Wunderground v.1.15,2013-09-13 08:11:00,
2013-09-13 04:21:00,70.3,67.5,29.77,WNW,300,0.0,0.0,91,0.00,,,0.00,Wunderground v.1.15,2013-09-13 08:21:00,
2013-09-13 04:31:00,69.9,67.2,29.76,WNW,300,0.0,0.0,91,0.00,,,0.00,Wunderground v.1.15,2013-09-13 08:31:00,
2013-09-13 04:41:00,69.4,67.3,29.76,WNW,300,0.0,0.0,93,0.00,,,0.00,Wunderground v.1.15,2013-09-13 08:41:00,
2013-09-13 04:51:00,69.0,66.9,29.77,WNW,300,0.0,0.0,93,0.00,,,0.00,Wunderground v.1.15,2013-09-13 08:51:00,
2013-09-13 05:01:00,68.7,66.9,29.77,WNW,300,0.0,1.0,94,0.00,,,0.00,Wunderground v.1.15,2013-09-13 09:01:00,
2013-09-13 05:11:00,68.1,66.6,29.77,WNW,300,0.0,0.0,95,0.00,,,0.00,Wunderground v.1.15,2013-09-13 09:11:00,
2013-09-13 05:21:00,67.9,66.4,29.77,WNW,300,0.0,1.0,95,0.00,,,0.00,Wunderground v.1.15,2013-09-13 09:21:00,
2013-09-13 05:31:00,67.7,66.2,29.77,WNW,284,1.0,1.0,95,0.00,,,0.00,Wunderground v.1.15,2013-09-13 09:31:00,
2013-09-13 05:41:00,67.4,65.9,29.77,West,269,1.0,1.0,95,0.00,,,0.00,Wunderground v.1.15,2013-09-13 09:41:00,
2013-09-13 05:51:00,67.1,65.9,29.77,SSW,201,1.0,1.0,96,0.00,,,0.00,Wunderground v.1.15,2013-09-13 09:51:00,
2013-09-13 06:01:00,67.1,65.9,29.77,NNW,338,1.0,1.0,96,0.00,,,0.00,Wunderground v.1.15,2013-09-13 10:01:00,
2013-09-13 06:11:00,67.1,66.2,29.78,NNW,338,0.0,0.0,97,0.00,,,0.00,Wunderground v.1.15,2013-09-13 10:11:00,
2013-09-13 06:21:00,67.2,66.3,29.78,NW,325,0.0,1.0,97,0.00,,,0.00,Wunderground v.1.15,2013-09-13 10:21:00,
2013-09-13 06:31:00,67.3,66.1,29.78,NW,310,1.0,1.0,96,0.00,,,0.00,Wunderground v.1.15,2013-09-13 10:31:00,
2013-09-13 06:41:00,67.2,66.3,29.79,West,276,1.0,1.0,97,0.00,,,0.00,Wunderground v.1.15,2013-09-13 10:41:00,
2013-09-13 06:51:00,67.2,66.0,29.79,West,264,1.0,1.0,96,0.00,,,0.00,Wunderground v.1.15,2013-09-13 10:51:00,
2013-09-13 07:01:00,67.0,65.8,29.79,WNW,302,0.0,0.0,96,0.00,,,0.00,Wunderground v.1.15,2013-09-13 11:01:00,
2013-09-13 07:11:00,67.1,66.2,29.80,WNW,302,0.0,0.0,97,0.00,,,0.00,Wunderground v.1.15,2013-09-13 11:11:00,
2013-09-13 07:21:00,67.0,65.8,29.80,WNW,300,0.0,1.0,96,0.00,,,0.00,Wunderground v.1.15,2013-09-13 11:21:00,
2013-09-13 07:31:00,67.6,66.1,29.81,WNW,290,1.0,1.0,95,0.00,,,0.00,Wunderground v.1.15,2013-09-13 11:31:00,
2013-09-13 07:41:00,68.2,66.1,29.81,WNW,296,0.0,0.0,93,0.00,,,0.00,Wunderground v.1.15,2013-09-13 11:41:00,
2013-09-13 07:51:00,68.6,66.2,29.81,WNW,296,0.0,1.0,92,0.00,,,0.00,Wunderground v.1.15,2013-09-13 11:51:00,
2013-09-13 08:01:00,68.7,66.0,29.81,WNW,296,0.0,0.0,91,0.00,,,0.00,Wunderground v.1.15,2013-09-13 12:01:00,
2013-09-13 08:11:00,68.8,66.4,29.80,WNW,296,0.0,0.0,92,0.00,,,0.00,Wunderground v.1.15,2013-09-13 12:11:00,
2013-09-13 08:21:00,69.6,66.5,29.80,North,5,0.0,0.0,90,0.00,,,0.00,Wunderground v.1.15,2013-09-13 12:21:00,
2013-09-13 08:31:00,69.6,66.2,29.81,NW,314,0.0,0.0,89,0.00,,,0.00,Wunderground v.1.15,2013-09-13 12:31:00,
2013-09-13 08:41:00,70.7,67.0,29.80,NW,307,1.0,2.0,88,0.00,,,0.00,Wunderground v.1.15,2013-09-13 12:41:00,
2013-09-13 08:51:00,71.6,67.5,29.80,NNE,28,1.0,1.0,87,0.00,,,0.00,Wunderground v.1.15,2013-09-13 12:51:00,
2013-09-13 09:01:00,72.6,67.8,29.80,NE,46,4.0,4.0,85,0.00,,,0.00,Wunderground v.1.15,2013-09-13 13:01:00,
2013-09-13 09:11:00,73.2,67.4,29.81,North,355,5.0,6.0,82,0.00,,,0.00,Wunderground v.1.15,2013-09-13 13:11:00,
2013-09-13 09:21:00,74.1,68.3,29.81,NNE,27,5.0,7.0,82,0.00,,,0.00,Wunderground v.1.15,2013-09-13 13:21:00,
2013-09-13 09:31:00,74.4,66.7,29.80,North,10,6.0,6.0,77,0.00,,,0.00,Wunderground v.1.15,2013-09-13 13:31:00,
2013-09-13 09:41:00,74.9,66.1,29.81,North,9,5.0,5.0,74,0.00,,,0.00,Wunderground v.1.15,2013-09-13 13:41:00,
2013-09-13 09:51:00,75.5,66.6,29.81,NE,36,3.0,3.0,74,0.00,,,0.00,Wunderground v.1.15,2013-09-13 13:51:00,
2013-09-13 10:01:00,75.9,66.2,29.81,NNE,28,2.0,3.0,72,0.00,,,0.00,Wunderground v.1.15,2013-09-13 14:01:00,
2013-09-13 10:11:00,76.8,66.3,29.81,North,11,4.0,4.0,70,0.00,,,0.00,Wunderground v.1.15,2013-09-13 14:11:00,
2013-09-13 10:21:00,77.5,65.2,29.81,NNW,341,4.0,4.0,66,0.00,,,0.00,Wunderground v.1.15,2013-09-13 14:21:00,
2013-09-13 10:31:00,77.6,65.3,29.81,NNE,33,6.0,6.0,66,0.00,,,0.00,Wunderground v.1.15,2013-09-13 14:31:00,
2013-09-13 10:41:00,78.1,65.8,29.81,NNW,333,4.0,4.0,66,0.00,,,0.00,Wunderground v.1.15,2013-09-13 14:41:00,
2013-09-13 10:51:00,78.8,66.0,29.81,NNE,15,4.0,4.0,65,0.00,,,0.00,Wunderground v.1.15,2013-09-13 14:51:00,
2013-09-13 11:01:00,77.9,65.6,29.81,NNE,32,4.0,4.0,66,0.00,,,0.00,Wunderground v.1.15,2013-09-13 15:01:00,
2013-09-13 11:11:00,78.9,66.1,29.82,NNE,16,5.0,6.0,65,0.00,,,0.00,Wunderground v.1.15,2013-09-13 15:11:00,
2013-09-13 11:21:00,79.4,66.2,29.82,NNE,26,5.0,6.0,64,0.00,,,0.00,Wunderground v.1.15,2013-09-13 15:21:00,
2013-09-13 11:31:00,79.3,65.1,29.82,NE,46,6.0,6.0,62,0.00,,,0.00,Wunderground v.1.15,2013-09-13 15:31:00,
2013-09-13 11:41:00,78.7,66.4,29.81,NE,38,4.0,4.0,66,0.00,,,0.00,Wunderground v.1.15,2013-09-13 15:41:00,
2013-09-13 11:51:00,79.5,64.9,29.81,NNE,14,1.0,1.0,61,0.00,,,0.00,Wunderground v.1.15,2013-09-13 15:51:00,
2013-09-13 12:01:00,80.2,66.5,29.81,SSE,155,1.0,1.0,63,0.00,,,0.00,Wunderground v.1.15,2013-09-13 16:01:00,
2013-09-13 12:11:00,80.6,66.8,29.81,WNW,290,2.0,2.0,63,0.00,,,0.00,Wunderground v.1.15,2013-09-13 16:11:00,
2013-09-13 12:21:00,80.6,65.4,29.81,NNE,17,4.0,4.0,60,0.00,,,0.00,Wunderground v.1.15,2013-09-13 16:21:00,
2013-09-13 12:31:00,80.5,66.7,29.81,NNW,331,3.0,3.0,63,0.00,,,0.00,Wunderground v.1.15,2013-09-13 16:31:00,
2013-09-13 12:41:00,80.9,64.7,29.81,West,262,3.0,3.0,58,0.00,,,0.00,Wunderground v.1.15,2013-09-13 16:41:00,
2013-09-13 12:51:00,80.8,64.6,29.80,WNW,292,3.0,4.0,58,0.00,,,0.00,Wunderground v.1.15,2013-09-13 16:51:00,
2013-09-13 13:01:00,80.5,65.8,29.80,West,273,2.0,4.0,61,0.00,,,0.00,Wunderground v.1.15,2013-09-13 17:01:00,
2013-09-13 13:11:00,81.3,66.6,29.79,West,270,2.0,3.0,61,0.00,,,0.00,Wunderground v.1.15,2013-09-13 17:11:00,
2013-09-13 13:21:00,82.1,66.8,29.79,West,265,2.0,4.0,60,0.00,,,0.00,Wunderground v.1.15,2013-09-13 17:21:00,
2013-09-13 13:31:00,82.1,63.8,29.78,North,5,3.0,3.0,54,0.00,,,0.00,Wunderground v.1.15,2013-09-13 17:31:00,
2013-09-13 13:41:00,82.7,63.3,29.78,WNW,300,4.0,4.0,52,0.00,,,0.00,Wunderground v.1.15,2013-09-13 17:41:00,
2013-09-13 13:51:00,83.0,63.0,29.78,WNW,288,3.0,5.0,51,0.00,,,0.00,Wunderground v.1.15,2013-09-13 17:51:00,
2013-09-13 14:01:00,83.4,61.1,29.77,West,265,6.0,10.0,47,0.00,,,0.00,Wunderground v.1.15,2013-09-13 18:01:00,
2013-09-13 14:11:00,83.2,61.5,29.77,NNE,26,5.0,5.0,48,0.00,,,0.00,Wunderground v.1.15,2013-09-13 18:11:00,
2013-09-13 14:21:00,83.3,62.1,29.77,NW,325,4.0,5.0,49,0.00,,,0.00,Wunderground v.1.15,2013-09-13 18:21:00,
2013-09-13 14:31:00,83.6,61.2,29.77,West,262,4.0,4.0,47,0.00,,,0.00,Wunderground v.1.15,2013-09-13 18:31:00,
2013-09-13 14:41:00,83.3,60.4,29.77,WSW,254,3.0,4.0,46,0.00,,,0.00,Wunderground v.1.15,2013-09-13 18:41:00,
2013-09-13 14:51:00,83.0,61.3,29.76,North,350,3.0,3.0,48,0.00,,,0.00,Wunderground v.1.15,2013-09-13 18:51:00,
2013-09-13 15:01:00,83.1,60.8,29.76,West,273,2.0,2.0,47,0.00,,,0.00,Wunderground v.1.15,2013-09-13 19:01:00,
2013-09-13 15:11:00,82.5,60.2,29.76,West,279,3.0,3.0,47,0.00,,,0.00,Wunderground v.1.15,2013-09-13 19:11:00,
2013-09-13 15:21:00,82.9,60.6,29.75,WNW,290,2.0,2.0,47,0.00,,,0.00,Wunderground v.1.15,2013-09-13 19:21:00,
2013-09-13 15:31:00,83.3,61.6,29.75,West,259,2.0,2.0,48,0.00,,,0.00,Wunderground v.1.15,2013-09-13 19:31:00,
2013-09-13 15:41:00,84.0,59.1,29.75,West,266,4.0,5.0,43,0.00,,,0.00,Wunderground v.1.15,2013-09-13 19:41:00,
2013-09-13 15:51:00,84.3,61.9,29.75,WSW,248,6.0,7.0,47,0.00,,,0.00,Wunderground v.1.15,2013-09-13 19:51:00,
2013-09-13 16:01:00,84.2,58.6,29.75,WSW,240,6.0,7.0,42,0.00,,,0.00,Wunderground v.1.15,2013-09-13 20:01:00,
2013-09-13 16:11:00,84.5,58.9,29.74,SW,218,5.0,5.0,42,0.00,,,0.00,Wunderground v.1.15,2013-09-13 20:11:00,
2013-09-13 16:21:00,84.6,59.6,29.74,West,267,5.0,5.0,43,0.00,,,0.00,Wunderground v.1.15,2013-09-13 20:21:00,
2013-09-13 16:31:00,84.2,56.6,29.75,WNW,291,6.0,6.0,39,0.00,,,0.00,Wunderground v.1.15,2013-09-13 20:31:00,
2013-09-13 16:41:00,84.3,58.7,29.74,WSW,252,5.0,5.0,42,0.00,,,0.00,Wunderground v.1.15,2013-09-13 20:41:00,
2013-09-13 16:51:00,84.0,57.8,29.74,West,261,4.0,4.0,41,0.00,,,0.00,Wunderground v.1.15,2013-09-13 20:51:00,
2013-09-13 17:01:00,83.7,56.8,29.74,West,274,5.0,5.0,40,0.00,,,0.00,Wunderground v.1.15,2013-09-13 21:01:00,
2013-09-13 17:11:00,83.9,59.7,29.74,SW,232,4.0,4.0,44,0.00,,,0.00,Wunderground v.1.15,2013-09-13 21:11:00,
2013-09-13 17:21:00,84.0,57.8,29.74,West,267,4.0,4.0,41,0.00,,,0.00,Wunderground v.1.15,2013-09-13 21:21:00,
2013-09-13 17:31:00,83.5,58.0,29.74,West,269,5.0,5.0,42,0.00,,,0.00,Wunderground v.1.15,2013-09-13 21:31:00,
2013-09-13 17:41:00,83.5,59.3,29.74,West,265,3.0,3.0,44,0.00,,,0.00,Wunderground v.1.15,2013-09-13 21:41:00,
2013-09-13 17:51:00,83.2,59.6,29.74,WSW,255,3.0,3.0,45,0.00,,,0.00,Wunderground v.1.15,2013-09-13 21:51:00,
2013-09-13 18:01:00,83.1,58.9,29.74,WNW,297,2.0,2.0,44,0.00,,,0.00,Wunderground v.1.15,2013-09-13 22:01:00,
2013-09-13 18:11:00,82.7,59.8,29.74,WNW,297,1.0,1.0,46,0.00,,,0.00,Wunderground v.1.15,2013-09-13 22:11:00,
2013-09-13 18:21:00,82.5,60.8,29.75,WNW,285,1.0,1.0,48,0.00,,,0.00,Wunderground v.1.15,2013-09-13 22:21:00,
2013-09-13 18:31:00,81.1,63.4,29.75,WNW,285,0.0,0.0,55,0.00,,,0.00,Wunderground v.1.15,2013-09-13 22:31:00,
2013-09-13 18:41:00,78.5,65.3,29.75,NE,36,1.0,3.0,64,0.00,,,0.00,Wunderground v.1.15,2013-09-13 22:41:00,
2013-09-13 18:51:00,79.0,62.0,29.75,ENE,59,4.0,4.0,56,0.00,,,0.00,Wunderground v.1.15,2013-09-13 22:51:00,
2013-09-13 19:01:00,78.4,61.9,29.75,NNE,24,3.0,3.0,57,0.00,,,0.00,Wunderground v.1.15,2013-09-13 23:01:00,
2013-09-13 19:11:00,77.9,61.4,29.76,NNE,15,4.0,4.0,57,0.00,,,0.00,Wunderground v.1.15,2013-09-13 23:11:00,
2013-09-13 19:21:00,77.1,61.7,29.76,NNE,15,4.0,5.0,59,0.00,,,0.00,Wunderground v.1.15,2013-09-13 23:21:00,
2013-09-13 19:31:00,76.1,61.2,29.76,NNE,22,4.0,4.0,60,0.00,,,0.00,Wunderground v.1.15,2013-09-13 23:31:00,
2013-09-13 19:41:00,75.4,60.5,29.76,North,5,4.0,4.0,60,0.00,,,0.00,Wunderground v.1.15,2013-09-13 23:41:00,
2013-09-13 19:51:00,75.1,59.3,29.77,NNW,336,5.0,5.0,58,0.00,,,0.00,Wunderground v.1.15,2013-09-13 23:51:00,
2013-09-13 20:01:00,74.6,58.4,29.78,North,350,4.0,5.0,57,0.00,,,0.00,Wunderground v.1.15,2013-09-14 00:01:00,
2013-09-13 20:11:00,74.0,57.8,29.78,North,355,4.0,4.0,57,0.00,,,0.00,Wunderground v.1.15,2013-09-14 00:11:00,
2013-09-13 20:21:00,73.3,58.1,29.78,NNE,15,3.0,3.0,59,0.00,,,0.00,Wunderground v.1.15,2013-09-14 00:21:00,
2013-09-13 20:31:00,72.7,58.0,29.79,NNE,29,2.0,4.0,60,0.00,,,0.00,Wunderground v.1.15,2013-09-14 00:31:00,
2013-09-13 20:41:00,72.3,57.2,29.79,NNE,15,4.0,4.0,59,0.00,,,0.00,Wunderground v.1.15,2013-09-14 00:41:00,
2013-09-13 20:51:00,72.1,57.0,29.80,North,11,5.0,5.0,59,0.00,,,0.00,Wunderground v.1.15,2013-09-14 00:51:00,
2013-09-13 21:01:00,71.9,56.8,29.80,NNE,30,4.0,4.0,59,0.00,,,0.00,Wunderground v.1.15,2013-09-14 01:01:00,
2013-09-13 21:11:00,71.2,56.6,29.81,NNE,29,3.0,3.0,60,0.00,,,0.00,Wunderground v.1.15,2013-09-14 01:11:00,
2013-09-13 21:21:00,70.4,56.8,29.81,NNE,27,2.0,2.0,62,0.00,,,0.00,Wunderground v.1.15,2013-09-14 01:21:00,
2013-09-13 21:31:00,70.1,56.9,29.81,North,5,4.0,4.0,63,0.00,,,0.00,Wunderground v.1.15,2013-09-14 01:31:00,
2013-09-13 21:41:00,70.2,57.0,29.82,NE,53,4.0,4.0,63,0.00,,,0.00,Wunderground v.1.15,2013-09-14 01:41:00,
2013-09-13 21:51:00,69.6,56.9,29.82,NNE,21,2.0,3.0,64,0.00,,,0.00,Wunderground v.1.15,2013-09-14 01:51:00,
2013-09-13 22:01:00,69.2,56.5,29.82,NE,36,2.0,2.0,64,0.00,,,0.00,Wunderground v.1.15,2013-09-14 02:01:00,
2013-09-13 22:11:00,68.9,55.8,29.83,NNE,26,3.0,3.0,63,0.00,,,0.00,Wunderground v.1.15,2013-09-14 02:11:00,
2013-09-13 22:21:00,68.8,55.7,29.83,NNE,28,3.0,4.0,63,0.00,,,0.00,Wunderground v.1.15,2013-09-14 02:21:00,
2013-09-13 22:31:00,68.4,55.3,29.83,NNE,26,2.0,2.0,63,0.00,,,0.00,Wunderground v.1.15,2013-09-14 02:31:00,
2013-09-13 22:41:00,68.5,55.0,29.83,NE,38,4.0,4.0,62,0.00,,,0.00,Wunderground v.1.15,2013-09-14 02:41:00,
2013-09-13 22:51:00,68.4,55.3,29.84,NE,43,5.0,5.0,63,0.00,,,0.00,Wunderground v.1.15,2013-09-14 02:51:00,
2013-09-13 23:01:00,68.2,55.6,29.84,NE,54,4.0,4.0,64,0.00,,,0.00,Wunderground v.1.15,2013-09-14 03:01:00,
2013-09-13 23:11:00,68.0,55.8,29.84,North,11,5.0,5.0,65,0.00,,,0.00,Wunderground v.1.15,2013-09-14 03:11:00,
2013-09-13 23:21:00,68.0,55.8,29.84,NE,38,5.0,5.0,65,0.00,,,0.00,Wunderground v.1.15,2013-09-14 03:21:00,
2013-09-13 23:31:00,67.7,55.5,29.84,NNE,18,5.0,5.0,65,0.00,,,0.00,Wunderground v.1.15,2013-09-14 03:31:00,
2013-09-13 23:41:00,67.5,55.3,29.84,NNE,32,4.0,4.0,65,0.00,,,0.00,Wunderground v.1.15,2013-09-14 03:41:00,
2013-09-13 23:51:00,67.1,55.8,29.84,NE,35,3.0,5.0,67,0.00,,,0.00,Wunderground v.1.15,2013-09-14 03:51:00,